createdAt,value
2023-02-02T00:05:01.424Z,100279.13
2023-02-02T00:12:03.073Z,100277.19
2023-02-02T00:19:18.502Z,100278.53
2023-02-02T00:26:20.232Z,100270.88
2023-02-02T00:33:21.764Z,100276.22
2023-02-02T00:40:23.341Z,100258.06
2023-02-02T00:47:25.263Z,100252.91
2023-02-02T00:54:27.136Z,100253.34
2023-02-02T01:01:28.774Z,100263.88
2023-02-02T01:08:30.389Z,100261.75
2023-02-02T01:15:31.938Z,100254.03
2023-02-02T01:22:38.431Z,100251.84
2023-02-02T01:29:40.002Z,100265.50
2023-02-02T01:36:41.580Z,100270.56
2023-02-02T01:43:43.155Z,100253.34
2023-02-02T01:50:44.729Z,100263.75
2023-02-02T01:58:11.136Z,100275.00
2023-02-02T02:05:12.644Z,100291.59
2023-02-02T02:12:15.481Z,100294.78
2023-02-02T02:19:35.744Z,100284.59
2023-02-02T02:26:54.438Z,100302.75
2023-02-02T02:34:16.031Z,100312.25
2023-02-02T02:41:20.808Z,100301.16
2023-02-02T02:48:22.453Z,100324.31
2023-02-02T02:55:25.050Z,100330.28
2023-02-02T03:02:41.731Z,100333.78
2023-02-02T03:09:43.277Z,100343.56
2023-02-02T03:16:44.796Z,100348.19
2023-02-02T03:23:46.315Z,100378.63
2023-02-02T03:30:47.911Z,100383.72
2023-02-02T03:37:49.541Z,100412.09
2023-02-02T03:44:51.119Z,100425.19
2023-02-02T03:51:52.651Z,100435.00
2023-02-02T03:58:54.169Z,100444.31
2023-02-02T04:05:55.683Z,100456.00
2023-02-02T04:12:57.323Z,100483.09
2023-02-02T04:19:59.252Z,100484.53
2023-02-02T04:27:00.935Z,100509.25
2023-02-02T04:34:02.642Z,100509.41
2023-02-02T04:41:08.150Z,100526.22
2023-02-02T04:48:09.807Z,100533.84
2023-02-02T04:55:11.602Z,100542.31
2023-02-02T05:02:13.153Z,100558.09
2023-02-02T05:09:15.404Z,100573.31
2023-02-02T05:16:18.106Z,100588.53
2023-02-02T05:23:19.893Z,100602.28
2023-02-02T05:30:21.642Z,100607.50
2023-02-02T05:37:23.279Z,100621.56
2023-02-02T05:44:24.945Z,100637.66
2023-02-02T05:51:29.837Z,100654.78
2023-02-02T05:58:31.504Z,100663.69
2023-02-02T06:05:33.463Z,100670.94
2023-02-02T06:12:35.000Z,100680.63
2023-02-02T06:19:36.556Z,100692.50
2023-02-02T06:26:38.167Z,100699.31
2023-02-02T06:33:40.139Z,100718.97
2023-02-02T06:40:41.687Z,100741.34
2023-02-02T06:47:43.403Z,100741.97
2023-02-02T06:54:44.988Z,100752.81
2023-02-02T07:01:51.561Z,100772.44
2023-02-02T07:09:01.774Z,100779.13
2023-02-02T07:16:05.032Z,100802.88
2023-02-02T07:23:06.719Z,100825.56
2023-02-02T07:30:09.193Z,100832.53
2023-02-02T07:37:10.921Z,100841.78
2023-02-02T07:44:15.337Z,100834.19
2023-02-02T07:51:18.133Z,100846.69
2023-02-02T07:58:19.741Z,100863.31
2023-02-02T08:05:22.789Z,100884.41
2023-02-02T08:12:26.435Z,100884.63
2023-02-02T08:19:28.053Z,100898.00
2023-02-02T08:26:30.191Z,100900.66
2023-02-02T08:33:31.830Z,100911.06
2023-02-02T08:40:33.545Z,100908.34
2023-02-02T08:47:35.235Z,100925.44
2023-02-02T08:54:37.020Z,100930.88
2023-02-02T09:01:38.582Z,100939.09
2023-02-02T09:08:40.579Z,100931.25
2023-02-02T09:15:42.541Z,100949.56
2023-02-02T09:22:47.385Z,100966.72
2023-02-02T09:29:49.272Z,100983.22
2023-02-02T09:36:51.984Z,100989.53
2023-02-02T09:44:26.431Z,100999.38
2023-02-02T09:51:31.416Z,101001.34
2023-02-02T09:58:48.423Z,101013.13
2023-02-02T10:05:57.933Z,101025.03
2023-02-02T10:13:04.775Z,101016.81
2023-02-02T10:20:40.512Z,101029.72
2023-02-02T10:27:46.147Z,101040.31
2023-02-02T10:35:11.087Z,101037.94
2023-02-02T10:42:31.154Z,101039.63
2023-02-02T10:49:34.117Z,101034.59
2023-02-02T10:56:38.013Z,101045.09
2023-02-02T11:03:40.180Z,101047.03
2023-02-02T11:10:43.608Z,101069.00
2023-02-02T11:17:45.153Z,101075.44
2023-02-02T11:24:47.799Z,101089.81
2023-02-02T11:31:49.342Z,101097.16
2023-02-02T11:39:16.269Z,101103.94
2023-02-02T11:46:23.606Z,101102.81
2023-02-02T11:53:36.685Z,101110.69
2023-02-02T12:00:51.731Z,101106.97
2023-02-02T12:07:59.846Z,101123.47
2023-02-02T12:15:20.185Z,101152.94
2023-02-02T12:22:51.065Z,101160.00
2023-02-02T12:30:11.418Z,101177.41
2023-02-02T12:37:47.508Z,101194.03
2023-02-02T12:44:56.220Z,101177.94
2023-02-02T12:52:03.374Z,101173.84
2023-02-02T12:59:31.153Z,101186.50
2023-02-02T13:06:52.347Z,101203.19
2023-02-02T13:13:53.865Z,101215.78
2023-02-02T13:21:00.764Z,101227.91
2023-02-02T13:28:02.429Z,101240.63
2023-02-02T13:35:22.022Z,101263.09
2023-02-02T13:42:55.919Z,101266.25
2023-02-02T13:50:03.921Z,101284.19
2023-02-02T13:57:11.303Z,101299.28
2023-02-02T14:04:26.470Z,101311.34
2023-02-02T14:11:30.753Z,101331.69
2023-02-02T14:18:56.955Z,101350.47
2023-02-02T14:26:06.315Z,101364.34
2023-02-02T14:33:37.105Z,101382.41
2023-02-02T14:40:49.898Z,101400.50
2023-02-02T14:48:07.212Z,101410.59
2023-02-02T14:55:27.283Z,101436.00
2023-02-02T15:02:29.095Z,101449.59
2023-02-02T15:09:37.274Z,101462.28
2023-02-02T15:16:38.840Z,101473.16
2023-02-02T15:23:42.012Z,101496.03
2023-02-02T15:30:44.961Z,101491.53
2023-02-02T15:37:49.326Z,101522.19
2023-02-02T15:44:50.828Z,101534.13
2023-02-02T15:51:53.422Z,101551.84
2023-02-02T15:58:56.547Z,101567.38
2023-02-02T16:05:58.122Z,101588.22
2023-02-02T16:12:59.666Z,101604.50
2023-02-02T16:20:13.139Z,101628.94
2023-02-02T16:27:19.126Z,101644.94
2023-02-02T16:34:38.946Z,101661.38
2023-02-02T16:41:40.505Z,101680.22
2023-02-02T16:48:45.918Z,101696.59
2023-02-02T16:55:50.845Z,101697.25
2023-02-02T17:03:06.608Z,101699.13
2023-02-02T17:10:17.295Z,101715.03
2023-02-02T17:17:18.910Z,101723.22
2023-02-02T17:24:20.479Z,101729.75
2023-02-02T17:31:22.248Z,101738.69
2023-02-02T17:38:24.425Z,101744.28
2023-02-02T17:45:34.157Z,101758.53
2023-02-02T17:52:38.216Z,101775.53
2023-02-02T17:59:39.749Z,101781.09
2023-02-02T18:06:41.341Z,101783.91
2023-02-02T18:13:43.427Z,101782.25
2023-02-02T18:20:46.601Z,101782.38
2023-02-02T18:27:50.517Z,101781.81
2023-02-02T18:34:55.602Z,101787.91
2023-02-02T18:41:57.539Z,101776.41
2023-02-02T18:48:59.135Z,101781.13
2023-02-02T18:56:05.278Z,101787.47
2023-02-02T19:03:06.918Z,101780.34
2023-02-02T19:10:08.840Z,101780.28
2023-02-02T19:17:24.392Z,101780.47
2023-02-02T19:24:26.789Z,101788.66
2023-02-02T19:31:28.523Z,101799.34
2023-02-02T19:38:30.223Z,101799.69
2023-02-02T19:45:32.841Z,101798.03
2023-02-02T19:52:34.575Z,101803.38
2023-02-02T19:59:36.196Z,101805.19
2023-02-02T20:06:52.615Z,101811.47
2023-02-02T20:13:59.756Z,101807.94
2023-02-02T20:21:01.320Z,101816.28
2023-02-02T20:28:05.217Z,101823.06
2023-02-02T20:35:37.068Z,101820.88
2023-02-02T20:42:38.732Z,101804.50
2023-02-02T20:49:40.278Z,101812.66
2023-02-02T20:56:41.872Z,101802.94
2023-02-02T21:03:43.399Z,101794.13
2023-02-02T21:10:44.936Z,101788.03
2023-02-02T21:17:46.610Z,101788.16
2023-02-02T21:24:48.216Z,101785.56
2023-02-02T21:31:49.908Z,101770.13
2023-02-02T21:38:51.470Z,101766.47
2023-02-02T21:45:53.233Z,101760.16
2023-02-02T21:53:21.467Z,101759.34
2023-02-02T22:00:28.355Z,101765.69
2023-02-02T22:07:30.573Z,101754.78
2023-02-02T22:14:34.912Z,101735.16
2023-02-02T22:21:36.456Z,101725.38
2023-02-02T22:28:39.826Z,101741.72
2023-02-02T22:35:41.925Z,101742.06
2023-02-02T22:42:43.682Z,101749.06
2023-02-02T22:49:45.205Z,101740.22
2023-02-02T22:56:46.720Z,101733.53
2023-02-02T23:03:49.487Z,101736.38
2023-02-02T23:10:51.045Z,101732.91
2023-02-02T23:17:53.001Z,101721.13
2023-02-02T23:24:54.587Z,101711.84
2023-02-02T23:31:56.141Z,101707.56
2023-02-02T23:38:57.668Z,101707.47
2023-02-02T23:46:00.143Z,101685.13
2023-02-02T23:53:01.788Z,101679.47
